CheckWX is a tool to help pilots better visualize weather data.  It is not intended as a substitute for an official pre-flight weather briefing.

08:12:19 UTC

KLWM METAR
Lawrence Municipal Airport
Lawrence, Massachusetts, USA
Current

18 mins ago

KLWM 290754Z AUTO 21006KT 10SM OVC011 22/19 A3005 RMK AO2 SLP173 T02170194
Observed
May-29 @ 07:54 UTC
Wind
  • 210° at 6 KTS
Visibility
Flight Rules
MVFR
Cloud Levels
  • Overcast at 1,100' AGL
Temperature
22°C / 72°F
Dewpoint
19°C / 66°F
Humidity
83%
Altimeter
30.05" Hg
Pressure
1017.62 hPa
Previous

1 hour ago

KLWM 290654Z AUTO 20007KT 10SM OVC012 22/19 A3006 RMK AO2 SLP176 T02170194
Observed
May-29 @ 06:54 UTC
Wind
  • 200° at 7 KTS
Visibility
Flight Rules
MVFR
Cloud Levels
  • Overcast at 1,200' AGL
Temperature
22°C / 72°F
Dewpoint
19°C / 66°F
Humidity
83%
Altimeter
30.06" Hg
Pressure
1017.92 hPa
Previous

2 hours ago

KLWM 290554Z AUTO 20006KT 10SM OVC011 22/19 A3006 RMK AO2 SLP179 T02170194 10239 20217 57006
Observed
May-29 @ 05:54 UTC
Wind
  • 200° at 6 KTS
Visibility
Flight Rules
MVFR
Cloud Levels
  • Overcast at 1,100' AGL
Temperature
22°C / 72°F
Dewpoint
19°C / 66°F
Humidity
83%
Altimeter
30.06" Hg
Pressure
1017.92 hPa